Time;durP1;ratioP1;P1;durP2;ratioP2;P2;SDS_P1;SDS_P2;PMS_P1;PMS_P2;Temp;Humidity;BMP_temperature;BMP_pressure;BME280_temperature;BME280_humidity;BME280_pressure;Samples;Min_cycle;Max_cycle;Signal;HPM_P1;HPM_P2
2024/02/23 00:08:43;;;;;;;;;;;5.60;99.90;;;;;;6731849;88;20058;-77
2024/02/23 00:18:43;;;;;;;;;;;5.60;99.90;;;;;;6735091;88;20208;-77
2024/02/23 00:28:44;;;;;;;;;;;5.70;99.90;;;;;;6734036;88;20148;-78
2024/02/23 00:38:44;;;;;;;;;;;5.60;99.90;;;;;;6725129;88;20076;-78
2024/02/23 00:48:45;;;;;;;;;;;5.50;99.90;;;;;;6730583;77;20099;-76
2024/02/23 00:58:45;;;;;;;;;;;5.30;99.90;;;;;;6720196;88;20506;-76
2024/02/23 01:08:46;;;;;;;;;;;5.00;99.90;;;;;;6703046;88;20191;-76
2024/02/23 01:18:47;;;;;;;;;;;5.00;99.90;;;;;;6697038;88;20255;-76
2024/02/23 01:28:47;;;;;;;;;;;4.90;99.90;;;;;;6697511;88;20139;-76
2024/02/23 01:38:48;;;;;;;;;;;5.00;99.90;;;;;;6705866;88;20072;-76
2024/02/23 01:48:48;;;;;;;;;;;4.80;99.90;;;;;;6702270;88;20540;-76
2024/02/23 01:58:49;;;;;;;;;;;4.90;99.90;;;;;;6705401;88;20079;-76
2024/02/23 02:08:49;;;;;;;;;;;4.90;99.90;;;;;;6709077;88;20056;-76
2024/02/23 02:18:50;;;;;;;;;;;5.00;99.90;;;;;;6704439;88;20055;-77
2024/02/23 02:28:50;;;;;;;;;;;5.10;99.90;;;;;;6706807;88;20068;-77
2024/02/23 02:38:51;;;;;;;;;;;5.10;99.90;;;;;;6710869;88;20510;-77
2024/02/23 02:48:51;;;;;;;;;;;5.00;99.90;;;;;;6705718;88;20061;-77
2024/02/23 02:58:52;;;;;;;;;;;5.00;99.90;;;;;;6705402;88;20150;-77
2024/02/23 03:08:52;;;;;;;;;;;5.10;99.90;;;;;;6706133;88;20136;-77
2024/02/23 03:18:54;;;;;;;;;;;4.90;99.90;;;;;;6703413;88;20218;-77
2024/02/23 03:28:54;;;;;;;;;;;5.00;99.90;;;;;;6701365;88;20240;-77
2024/02/23 03:38:55;;;;;;;;;;;5.00;99.90;;;;;;6704519;88;20079;-76
2024/02/23 03:48:56;;;;;;;;;;;4.90;99.90;;;;;;6713746;88;20914;-77
2024/02/23 03:58:56;;;;;;;;;;;4.90;99.90;;;;;;6705345;88;20054;-77
2024/02/23 04:08:57;;;;;;;;;;;4.90;99.90;;;;;;6704685;88;20066;-76
2024/02/23 04:18:57;;;;;;;;;;;4.80;99.90;;;;;;6707890;88;20074;-78
2024/02/23 04:28:58;;;;;;;;;;;4.80;99.90;;;;;;6708277;88;20139;-77
2024/02/23 04:38:58;;;;;;;;;;;4.80;99.90;;;;;;6704662;88;20056;-76
2024/02/23 04:48:58;;;;;;;;;;;4.70;99.90;;;;;;6704170;88;20097;-78
2024/02/23 04:58:59;;;;;;;;;;;4.80;99.90;;;;;;6701405;88;20117;-76
2024/02/23 05:08:59;;;;;;;;;;;4.80;99.90;;;;;;6700456;88;20539;-76
2024/02/23 05:19:00;;;;;;;;;;;4.70;99.90;;;;;;6702621;88;20082;-76
2024/02/23 05:29:00;;;;;;;;;;;4.70;99.90;;;;;;6707328;88;20504;-76
2024/02/23 05:39:01;;;;;;;;;;;4.80;99.90;;;;;;6703509;88;20071;-76
2024/02/23 05:49:02;;;;;;;;;;;4.70;99.90;;;;;;6706748;88;20068;-77
2024/02/23 05:59:03;;;;;;;;;;;4.70;99.90;;;;;;6710349;88;20115;-77
2024/02/23 06:09:05;;;;;;;;;;;4.50;99.90;;;;;;6713652;88;20063;-77
2024/02/23 06:19:06;;;;;;;;;;;4.50;99.90;;;;;;6709712;88;20243;-77
2024/02/23 06:29:08;;;;;;;;;;;4.50;99.90;;;;;;6703406;88;20204;-78
2024/02/23 06:39:08;;;;;;;;;;;4.60;99.90;;;;;;6703510;88;20219;-80
2024/02/23 06:49:09;;;;;;;;;;;4.70;99.90;;;;;;6710272;77;20642;-75
2024/02/23 06:59:10;;;;;;;;;;;4.80;99.90;;;;;;6743088;88;20042;-77
2024/02/23 07:09:11;;;;;;;;;;;5.20;99.90;;;;;;6727400;88;20073;-79
2024/02/23 07:19:12;;;;;;;;;;;5.30;99.90;;;;;;6724463;88;20443;-76
2024/02/23 07:29:13;;;;;;;;;;;5.40;99.90;;;;;;6719979;88;20060;-80
2024/02/23 07:39:13;;;;;;;;;;;5.60;99.90;;;;;;6727621;88;20161;-76
2024/02/23 07:49:16;;;;;;;;;;;5.70;99.90;;;;;;6739331;88;20062;-77
2024/02/23 07:59:17;;;;;;;;;;;5.80;99.90;;;;;;6742073;88;20814;-78
2024/02/23 08:09:17;;;;;;;;;;;6.20;99.90;;;;;;6741869;88;20080;-77
2024/02/23 08:19:18;;;;;;;;;;;6.60;99.90;;;;;;6728160;88;20667;-77
2024/02/23 08:29:18;;;;;;;;;;;7.70;99.90;;;;;;6725789;88;20086;-77
2024/02/23 08:39:20;;;;;;;;;;;7.20;99.90;;;;;;6725734;88;20074;-77
2024/02/23 08:49:20;;;;;;;;;;;7.20;99.90;;;;;;6719382;88;20058;-77
2024/02/23 08:59:21;;;;;;;;;;;7.20;99.90;;;;;;6729385;88;20086;-78
2024/02/23 09:09:22;;;;;;;;;;;7.20;99.90;;;;;;6735816;88;20084;-77
2024/02/23 09:19:22;;;;;;;;;;;7.40;99.90;;;;;;6715562;88;20068;-77
2024/02/23 09:29:23;;;;;;;;;;;7.50;99.90;;;;;;6712133;88;20088;-77
2024/02/23 09:39:26;;;;;;;;;;;7.40;99.90;;;;;;6734546;88;20697;-78
2024/02/23 09:49:26;;;;;;;;;;;7.60;99.90;;;;;;6730800;88;20150;-79
2024/02/23 09:59:28;;;;;;;;;;;8.00;99.90;;;;;;6726638;88;20079;-80
2024/02/23 10:09:28;;;;;;;;;;;8.30;99.90;;;;;;6732687;88;20070;-79
2024/02/23 10:19:29;;;;;;;;;;;8.80;99.90;;;;;;6750068;88;20083;-78
2024/02/23 10:29:30;;;;;;;;;;;8.40;99.90;;;;;;6754635;88;20437;-79
2024/02/23 10:39:30;;;;;;;;;;;8.20;99.90;;;;;;6731107;88;20080;-79
2024/02/23 10:49:31;;;;;;;;;;;8.30;99.90;;;;;;6737419;88;20518;-79
2024/02/23 10:59:31;;;;;;;;;;;9.50;99.90;;;;;;6723499;88;20122;-79
2024/02/23 11:09:32;;;;;;;;;;;8.80;99.90;;;;;;6737168;88;20596;-78
2024/02/23 11:19:34;;;;;;;;;;;9.30;99.90;;;;;;6732762;88;20065;-78
2024/02/23 11:29:39;;;;;;;;;;;10.10;99.90;;;;;;6730289;88;20073;-78
2024/02/23 11:39:39;;;;;;;;;;;10.40;99.90;;;;;;6730830;88;20170;-79
2024/02/23 11:49:40;;;;;;;;;;;10.40;99.90;;;;;;6729685;88;20068;-78
2024/02/23 11:59:41;;;;;;;;;;;11.10;99.90;;;;;;6725307;88;20255;-78
2024/02/23 12:09:41;;;;;;;;;;;10.10;99.90;;;;;;6711305;88;20721;-78
2024/02/23 12:19:42;;;;;;;;;;;10.60;99.90;;;;;;6735948;88;20111;-77
2024/02/23 12:29:50;;;;;;;;;;;10.10;99.90;;;;;;6738446;88;20054;-78
2024/02/23 12:39:51;;;;;;;;;;;11.00;99.90;;;;;;6738930;88;20068;-78
2024/02/23 12:49:51;;;;;;;;;;;10.80;99.90;;;;;;6738998;88;20054;-79
2024/02/23 13:00:12;;;;;;;;;;;10.90;99.90;;;;;;6762667;77;20080;-80
2024/02/23 13:10:12;;;;;;;;;;;10.00;99.90;;;;;;6767891;88;20054;-81
2024/02/23 13:20:14;;;;;;;;;;;12.00;99.90;;;;;;6764462;88;20064;-81
2024/02/23 13:30:15;;;;;;;;;;;12.00;99.90;;;;;;6762963;88;20562;-80
2024/02/23 13:40:15;;;;;;;;;;;12.50;99.90;;;;;;6760636;88;20049;-81
2024/02/23 13:50:16;;;;;;;;;;;12.70;99.90;;;;;;6762269;88;20044;-81
2024/02/23 14:00:17;;;;;;;;;;;12.50;99.90;;;;;;6765474;88;20188;-80
2024/02/23 14:10:18;;;;;;;;;;;11.40;99.90;;;;;;6762694;88;20026;-81
2024/02/23 14:20:18;;;;;;;;;;;10.70;99.90;;;;;;6773102;88;20173;-81
2024/02/23 14:30:18;;;;;;;;;;;10.50;99.90;;;;;;6778360;87;20125;-81
2024/02/23 14:40:19;;;;;;;;;;;10.40;99.90;;;;;;6775773;87;20140;-81
2024/02/23 14:50:19;;;;;;;;;;;10.70;99.90;;;;;;6762590;88;20061;-83
2024/02/23 15:00:20;;;;;;;;;;;10.70;99.90;;;;;;6765234;87;20066;-82
2024/02/23 15:10:21;;;;;;;;;;;10.50;99.90;;;;;;6775479;88;20154;-82
2024/02/23 15:20:22;;;;;;;;;;;10.50;99.90;;;;;;6781085;87;20640;-82
2024/02/23 15:30:23;;;;;;;;;;;10.10;99.90;;;;;;6779756;87;20154;-80
2024/02/23 15:40:23;;;;;;;;;;;9.80;99.90;;;;;;6767288;88;20026;-80
2024/02/23 15:50:26;;;;;;;;;;;9.80;99.90;;;;;;6765186;88;20166;-81
2024/02/23 16:00:29;;;;;;;;;;;9.20;99.90;;;;;;6766359;87;20018;-82
2024/02/23 16:10:30;;;;;;;;;;;8.90;99.90;;;;;;6747958;88;20069;-82
2024/02/23 16:20:31;;;;;;;;;;;8.80;99.90;;;;;;6747877;88;20110;-82
2024/02/23 16:30:32;;;;;;;;;;;8.60;99.90;;;;;;6743588;88;20050;-82
2024/02/23 16:40:32;;;;;;;;;;;8.50;99.90;;;;;;6749006;88;20110;-81
2024/02/23 16:50:39;;;;;;;;;;;8.40;99.90;;;;;;6749288;88;20121;-82
2024/02/23 17:00:39;;;;;;;;;;;8.10;99.90;;;;;;6749563;88;20715;-81
2024/02/23 17:10:41;;;;;;;;;;;7.90;99.90;;;;;;6749645;88;20027;-81
2024/02/23 17:20:41;;;;;;;;;;;7.90;99.90;;;;;;6754873;88;20028;-81
2024/02/23 17:41:23;;;;;;;;;;;7.90;99.90;;;;;;6744102;88;20051;-81
2024/02/23 17:51:25;;;;;;;;;;;8.00;99.90;;;;;;6727619;88;20082;-78
2024/02/23 18:01:25;;;;;;;;;;;7.90;99.90;;;;;;6739527;88;20046;-81
2024/02/23 18:11:26;;;;;;;;;;;7.90;99.90;;;;;;6740700;88;20078;-80
2024/02/23 18:21:29;;;;;;;;;;;7.70;99.90;;;;;;6751128;88;20091;-81
2024/02/23 18:31:29;;;;;;;;;;;7.60;99.90;;;;;;6745746;88;20064;-81
2024/02/23 18:41:30;;;;;;;;;;;7.50;99.90;;;;;;6740521;88;20683;-82
2024/02/23 18:51:31;;;;;;;;;;;7.30;99.90;;;;;;6748596;88;20026;-85
2024/02/23 19:11:35;;;;;;;;;;;7.10;99.90;;;;;;6725410;88;20053;-79
2024/02/23 19:21:36;;;;;;;;;;;7.10;99.90;;;;;;6723028;88;20528;-80
2024/02/23 19:31:36;;;;;;;;;;;6.90;99.90;;;;;;6724939;88;20062;-80
2024/02/23 19:41:43;;;;;;;;;;;6.70;99.90;;;;;;6718683;88;20223;-78
2024/02/23 19:51:44;;;;;;;;;;;6.50;99.90;;;;;;6705584;88;20058;-80
2024/02/23 20:01:44;;;;;;;;;;;6.40;99.90;;;;;;6705440;88;20082;-80
2024/02/23 20:11:45;;;;;;;;;;;6.30;99.90;;;;;;6705879;88;20083;-79
2024/02/23 20:21:46;;;;;;;;;;;6.30;99.90;;;;;;6703066;88;20066;-81
2024/02/23 20:31:47;;;;;;;;;;;6.30;99.90;;;;;;6703328;88;20080;-80
2024/02/23 20:41:48;;;;;;;;;;;6.30;99.90;;;;;;6707364;88;20445;-79
2024/02/23 20:51:51;;;;;;;;;;;6.20;99.90;;;;;;6718282;88;20169;-78
2024/02/23 21:01:51;;;;;;;;;;;6.30;99.90;;;;;;6719610;88;20132;-78
2024/02/23 21:11:51;;;;;;;;;;;6.20;99.90;;;;;;6710516;88;20481;-78
2024/02/23 21:21:52;;;;;;;;;;;6.10;99.90;;;;;;6721581;88;20057;-80
2024/02/23 21:31:52;;;;;;;;;;;6.00;99.90;;;;;;6721148;88;20070;-78
2024/02/23 21:41:53;;;;;;;;;;;6.00;99.90;;;;;;6709612;88;20197;-79
2024/02/23 21:51:53;;;;;;;;;;;6.00;99.90;;;;;;6717947;88;20058;-78
2024/02/23 22:01:54;;;;;;;;;;;6.00;99.90;;;;;;6720099;88;20077;-79
2024/02/23 22:11:54;;;;;;;;;;;5.90;99.90;;;;;;6715727;88;20107;-79
2024/02/23 22:21:55;;;;;;;;;;;5.80;99.90;;;;;;6715919;88;20078;-79
2024/02/23 22:31:55;;;;;;;;;;;5.70;99.90;;;;;;6722599;88;20121;-79
2024/02/23 22:41:56;;;;;;;;;;;5.70;99.90;;;;;;6715905;88;20525;-77
2024/02/23 22:51:56;;;;;;;;;;;5.70;99.90;;;;;;6731441;88;20071;-76
2024/02/23 23:01:57;;;;;;;;;;;5.60;99.90;;;;;;6714230;88;20139;-77
2024/02/23 23:11:57;;;;;;;;;;;5.50;99.90;;;;;;6722067;88;20180;-77
2024/02/23 23:21:58;;;;;;;;;;;5.50;99.90;;;;;;6716496;88;20062;-77
2024/02/23 23:31:58;;;;;;;;;;;5.40;99.90;;;;;;6724895;88;20070;-77
2024/02/23 23:41:58;;;;;;;;;;;5.30;99.90;;;;;;6724457;88;20089;-77
2024/02/23 23:51:59;;;;;;;;;;;5.20;99.90;;;;;;6721136;88;20765;-77
